sensor_id;sensor_type;location;lat;lon;timestamp;pressure;altitude;pressure_sealevel;temperature;humidity
22389;BME280;11362;48.102;11.620;2023-04-19T00:00:25;95617.25;;;20.87;34.39
22389;BME280;11362;48.102;11.620;2023-04-19T00:02:51;95616.44;;;20.86;34.34
22389;BME280;11362;48.102;11.620;2023-04-19T00:05:16;95612.53;;;20.87;34.32
22389;BME280;11362;48.102;11.620;2023-04-19T00:07:41;95611.72;;;20.87;34.46
22389;BME280;11362;48.102;11.620;2023-04-19T00:10:07;95612.88;;;20.86;34.34
22389;BME280;11362;48.102;11.620;2023-04-19T00:12:32;95603.78;;;20.85;34.39
22389;BME280;11362;48.102;11.620;2023-04-19T00:14:58;95615.63;;;20.86;34.43
22389;BME280;11362;48.102;11.620;2023-04-19T00:17:23;95611.72;;;20.87;34.48
22389;BME280;11362;48.102;11.620;2023-04-19T00:19:48;95595.16;;;20.87;34.34
22389;BME280;11362;48.102;11.620;2023-04-19T00:22:14;95602.63;;;20.86;34.60
22389;BME280;11362;48.102;11.620;2023-04-19T00:24:39;95593.53;;;20.86;34.46
22389;BME280;11362;48.102;11.620;2023-04-19T00:27:04;95593.94;;;20.84;34.35
22389;BME280;11362;48.102;11.620;2023-04-19T00:29:30;95593.53;;;20.86;34.39
22389;BME280;11362;48.102;11.620;2023-04-19T00:31:55;95591.59;;;20.86;34.49
22389;BME280;11362;48.102;11.620;2023-04-19T00:34:20;95587.22;;;20.85;34.38
22389;BME280;11362;48.102;11.620;2023-04-19T00:36:45;95580.13;;;20.84;34.43
22389;BME280;11362;48.102;11.620;2023-04-19T00:39:11;95588.41;;;20.84;34.38
22389;BME280;11362;48.102;11.620;2023-04-19T00:41:36;95594.72;;;20.85;34.27
22389;BME280;11362;48.102;11.620;2023-04-19T00:44:01;95586.06;;;20.86;34.51
22389;BME280;11362;48.102;11.620;2023-04-19T00:46:26;95585.25;;;20.86;34.48
22389;BME280;11362;48.102;11.620;2023-04-19T00:48:52;95579.75;;;20.86;34.38
22389;BME280;11362;48.102;11.620;2023-04-19T00:51:18;95576.97;;;20.86;34.43
22389;BME280;11362;48.102;11.620;2023-04-19T00:53:44;95578.16;;;20.85;34.42
22389;BME280;11362;48.102;11.620;2023-04-19T00:56:09;95576.97;;;20.86;34.46
22389;BME280;11362;48.102;11.620;2023-04-19T00:58:36;95574.22;;;20.86;34.47
22389;BME280;11362;48.102;11.620;2023-04-19T01:01:02;95570.66;;;20.85;34.55
22389;BME280;11362;48.102;11.620;2023-04-19T01:03:28;95569.09;;;20.84;34.22
22389;BME280;11362;48.102;11.620;2023-04-19T01:05:54;95568.31;;;20.84;34.32
22389;BME280;11362;48.102;11.620;2023-04-19T01:08:20;95573.41;;;20.85;34.38
22389;BME280;11362;48.102;11.620;2023-04-19T01:10:45;95574.59;;;20.84;34.48
22389;BME280;11362;48.102;11.620;2023-04-19T01:13:10;95570.28;;;20.83;34.32
22389;BME280;11362;48.102;11.620;2023-04-19T01:15:36;95569.88;;;20.85;34.51
22389;BME280;11362;48.102;11.620;2023-04-19T01:18:01;95564.38;;;20.85;34.71
22389;BME280;11362;48.102;11.620;2023-04-19T01:20:26;95560.78;;;20.84;34.43
22389;BME280;11362;48.102;11.620;2023-04-19T01:22:52;95558.84;;;20.85;34.63
22389;BME280;11362;48.102;11.620;2023-04-19T01:25:17;95556.50;;;20.87;34.34
22389;BME280;11362;48.102;11.620;2023-04-19T01:27:42;95549.03;;;20.87;34.38
22389;BME280;11362;48.102;11.620;2023-04-19T01:30:08;95546.59;;;20.86;34.46
22389;BME280;11362;48.102;11.620;2023-04-19T01:32:33;95555.69;;;20.86;34.30
22389;BME280;11362;48.102;11.620;2023-04-19T01:34:58;95547.00;;;20.84;34.45
22389;BME280;11362;48.102;11.620;2023-04-19T01:37:24;95543.84;;;20.86;34.60
22389;BME280;11362;48.102;11.620;2023-04-19T01:39:49;95541.47;;;20.84;34.34
22389;BME280;11362;48.102;11.620;2023-04-19T01:42:14;95546.22;;;20.84;34.43
22389;BME280;11362;48.102;11.620;2023-04-19T01:44:39;95543.84;;;20.86;34.35
22389;BME280;11362;48.102;11.620;2023-04-19T01:47:05;95537.94;;;20.84;34.55
22389;BME280;11362;48.102;11.620;2023-04-19T01:49:30;95539.13;;;20.83;34.49
22389;BME280;11362;48.102;11.620;2023-04-19T01:51:55;95531.22;;;20.85;34.41
22389;BME280;11362;48.102;11.620;2023-04-19T01:54:21;95531.22;;;20.85;34.49
22389;BME280;11362;48.102;11.620;2023-04-19T01:56:46;95534.75;;;20.85;34.58
22389;BME280;11362;48.102;11.620;2023-04-19T01:59:11;95534.75;;;20.85;34.51
22389;BME280;11362;48.102;11.620;2023-04-19T02:01:37;95534.00;;;20.85;34.51
22389;BME280;11362;48.102;11.620;2023-04-19T02:04:02;95525.31;;;20.86;34.23
22389;BME280;11362;48.102;11.620;2023-04-19T02:06:27;95535.56;;;20.86;34.31
22389;BME280;11362;48.102;11.620;2023-04-19T02:08:52;95528.88;;;20.87;34.31
22389;BME280;11362;48.102;11.620;2023-04-19T02:11:18;95533.59;;;20.86;34.24
22389;BME280;11362;48.102;11.620;2023-04-19T02:13:43;95526.94;;;20.87;34.29
22389;BME280;11362;48.102;11.620;2023-04-19T02:16:09;95528.09;;;20.86;34.32
22389;BME280;11362;48.102;11.620;2023-04-19T02:18:34;95512.31;;;20.87;34.40
22389;BME280;11362;48.102;11.620;2023-04-19T02:21:00;95517.84;;;20.87;34.29
22389;BME280;11362;48.102;11.620;2023-04-19T02:23:25;95522.56;;;20.86;34.32
22389;BME280;11362;48.102;11.620;2023-04-19T02:25:50;95510.72;;;20.86;34.41
22389;BME280;11362;48.102;11.620;2023-04-19T02:28:16;95512.31;;;20.87;34.49
22389;BME280;11362;48.102;11.620;2023-04-19T02:30:41;95509.56;;;20.87;34.35
22389;BME280;11362;48.102;11.620;2023-04-19T02:33:07;95506.00;;;20.86;34.48
22389;BME280;11362;48.102;11.620;2023-04-19T02:35:32;95504.03;;;20.87;34.28
22389;BME280;11362;48.102;11.620;2023-04-19T02:38:01;95509.19;;;20.88;34.32
22389;BME280;11362;48.102;11.620;2023-04-19T02:40:27;95500.47;;;20.86;34.20
22389;BME280;11362;48.102;11.620;2023-04-19T02:42:52;95496.91;;;20.86;34.50
22389;BME280;11362;48.102;11.620;2023-04-19T02:45:17;95499.69;;;20.86;34.30
22389;BME280;11362;48.102;11.620;2023-04-19T02:47:42;95493.34;;;20.85;34.29
22389;BME280;11362;48.102;11.620;2023-04-19T02:50:08;95498.09;;;20.85;34.49
22389;BME280;11362;48.102;11.620;2023-04-19T02:52:33;95493.34;;;20.85;34.51
22389;BME280;11362;48.102;11.620;2023-04-19T02:54:59;95497.72;;;20.86;34.52
22389;BME280;11362;48.102;11.620;2023-04-19T02:57:24;95494.16;;;20.86;34.51
22389;BME280;11362;48.102;11.620;2023-04-19T02:59:49;95488.63;;;20.86;34.14
22389;BME280;11362;48.102;11.620;2023-04-19T03:02:14;95491.78;;;20.84;34.27
22389;BME280;11362;48.102;11.620;2023-04-19T03:04:40;95488.63;;;20.86;34.41
22389;BME280;11362;48.102;11.620;2023-04-19T03:07:07;95487.06;;;20.85;34.37
22389;BME280;11362;48.102;11.620;2023-04-19T03:09:33;95487.06;;;20.85;34.51
22389;BME280;11362;48.102;11.620;2023-04-19T03:11:58;95489.81;;;20.85;34.41
22389;BME280;11362;48.102;11.620;2023-04-19T03:14:23;95488.25;;;20.84;34.21
22389;BME280;11362;48.102;11.620;2023-04-19T03:16:48;95480.34;;;20.86;34.51
22389;BME280;11362;48.102;11.620;2023-04-19T03:19:14;95483.50;;;20.84;34.58
22389;BME280;11362;48.102;11.620;2023-04-19T03:21:39;95483.13;;;20.86;34.38
22389;BME280;11362;48.102;11.620;2023-04-19T03:24:04;95473.66;;;20.87;34.51
22389;BME280;11362;48.102;11.620;2023-04-19T03:26:30;95475.22;;;20.84;34.62
22389;BME280;11362;48.102;11.620;2023-04-19T03:28:55;95472.88;;;20.86;34.50
22389;BME280;11362;48.102;11.620;2023-04-19T03:31:20;95473.25;;;20.85;34.55
22389;BME280;11362;48.102;11.620;2023-04-19T03:33:45;95472.88;;;20.86;34.54
22389;BME280;11362;48.102;11.620;2023-04-19T03:36:11;95466.53;;;20.86;34.58
22389;BME280;11362;48.102;11.620;2023-04-19T03:38:36;95464.97;;;20.85;34.52
22389;BME280;11362;48.102;11.620;2023-04-19T03:41:01;95464.16;;;20.84;34.60
22389;BME280;11362;48.102;11.620;2023-04-19T03:43:27;95464.97;;;20.85;34.39
22389;BME280;11362;48.102;11.620;2023-04-19T03:45:52;95465.75;;;20.85;34.48
22389;BME280;11362;48.102;11.620;2023-04-19T03:48:17;95462.22;;;20.85;34.41
22389;BME280;11362;48.102;11.620;2023-04-19T03:50:42;95455.50;;;20.86;34.56
22389;BME280;11362;48.102;11.620;2023-04-19T03:53:08;95457.88;;;20.84;34.50
22389;BME280;11362;48.102;11.620;2023-04-19T03:55:33;95455.50;;;20.86;34.37
22389;BME280;11362;48.102;11.620;2023-04-19T03:57:58;95460.63;;;20.84;34.53
22389;BME280;11362;48.102;11.620;2023-04-19T04:00:24;95461.03;;;20.86;34.36
22389;BME280;11362;48.102;11.620;2023-04-19T04:02:49;95462.22;;;20.85;34.56
22389;BME280;11362;48.102;11.620;2023-04-19T04:05:14;95455.50;;;20.86;34.68
22389;BME280;11362;48.102;11.620;2023-04-19T04:07:39;95458.25;;;20.82;34.60
22389;BME280;11362;48.102;11.620;2023-04-19T04:10:05;95462.97;;;20.85;34.50
22389;BME280;11362;48.102;11.620;2023-04-19T04:12:31;95462.22;;;20.85;34.52
22389;BME280;11362;48.102;11.620;2023-04-19T04:14:56;95457.88;;;20.84;34.62
22389;BME280;11362;48.102;11.620;2023-04-19T04:17:21;95456.69;;;20.85;34.44
22389;BME280;11362;48.102;11.620;2023-04-19T04:19:47;95463.41;;;20.84;34.47
22389;BME280;11362;48.102;11.620;2023-04-19T04:22:13;95470.88;;;20.83;34.51
22389;BME280;11362;48.102;11.620;2023-04-19T04:24:39;95465.34;;;20.83;34.56
22389;BME280;11362;48.102;11.620;2023-04-19T04:27:04;95467.34;;;20.83;34.43
22389;BME280;11362;48.102;11.620;2023-04-19T04:29:31;95457.47;;;20.82;34.55
22389;BME280;11362;48.102;11.620;2023-04-19T04:31:57;95459.06;;;20.83;34.54
22389;BME280;11362;48.102;11.620;2023-04-19T04:34:22;95461.81;;;20.83;34.55
22389;BME280;11362;48.102;11.620;2023-04-19T04:36:47;95466.94;;;20.84;34.61
22389;BME280;11362;48.102;11.620;2023-04-19T04:39:13;95469.69;;;20.84;34.66
22389;BME280;11362;48.102;11.620;2023-04-19T04:41:38;95462.97;;;20.82;34.35
22389;BME280;11362;48.102;11.620;2023-04-19T04:44:03;95465.34;;;20.83;34.43
22389;BME280;11362;48.102;11.620;2023-04-19T04:46:29;95468.50;;;20.82;34.52
22389;BME280;11362;48.102;11.620;2023-04-19T04:48:54;95456.31;;;20.83;34.56
22389;BME280;11362;48.102;11.620;2023-04-19T04:51:19;95464.16;;;20.81;34.59
22389;BME280;11362;48.102;11.620;2023-04-19T04:53:45;95464.59;;;20.83;34.68
22389;BME280;11362;48.102;11.620;2023-04-19T04:56:10;95465.75;;;20.82;34.53
22389;BME280;11362;48.102;11.620;2023-04-19T04:58:35;95465.75;;;20.82;34.52
22389;BME280;11362;48.102;11.620;2023-04-19T05:01:01;95461.03;;;20.82;34.66
22389;BME280;11362;48.102;11.620;2023-04-19T05:03:26;95458.25;;;20.82;34.62
22389;BME280;11362;48.102;11.620;2023-04-19T05:05:51;95458.25;;;20.82;34.48
22389;BME280;11362;48.102;11.620;2023-04-19T05:08:17;95456.31;;;20.83;34.73
22389;BME280;11362;48.102;11.620;2023-04-19T05:10:42;95454.69;;;20.82;34.60
22389;BME280;11362;48.102;11.620;2023-04-19T05:13:07;95454.69;;;20.82;34.52
22389;BME280;11362;48.102;11.620;2023-04-19T05:15:32;95451.16;;;20.81;34.53
22389;BME280;11362;48.102;11.620;2023-04-19T05:17:58;95453.13;;;20.81;34.43
22389;BME280;11362;48.102;11.620;2023-04-19T05:20:23;95453.53;;;20.83;34.64
22389;BME280;11362;48.102;11.620;2023-04-19T05:22:49;95449.19;;;20.82;34.62
22389;BME280;11362;48.102;11.620;2023-04-19T05:25:14;95446.84;;;20.80;34.56
22389;BME280;11362;48.102;11.620;2023-04-19T05:27:39;95459.44;;;20.81;34.63
22389;BME280;11362;48.102;11.620;2023-04-19T05:30:05;95452.34;;;20.80;34.40
22389;BME280;11362;48.102;11.620;2023-04-19T05:32:31;95452.34;;;20.80;34.69
22389;BME280;11362;48.102;11.620;2023-04-19T05:34:56;95449.19;;;20.82;34.54
22389;BME280;11362;48.102;11.620;2023-04-19T05:37:21;95451.56;;;20.83;34.70
22389;BME280;11362;48.102;11.620;2023-04-19T05:39:46;95444.47;;;20.82;34.61
22389;BME280;11362;48.102;11.620;2023-04-19T05:42:12;95446.03;;;20.83;34.61
22389;BME280;11362;48.102;11.620;2023-04-19T05:44:37;95453.13;;;20.81;34.58
22389;BME280;11362;48.102;11.620;2023-04-19T05:47:02;95448.41;;;20.81;34.74
22389;BME280;11362;48.102;11.620;2023-04-19T05:49:28;95444.47;;;20.82;34.64
22389;BME280;11362;48.102;11.620;2023-04-19T05:51:53;95451.94;;;20.82;34.65
22389;BME280;11362;48.102;11.620;2023-04-19T05:54:18;95451.56;;;20.80;34.73
22389;BME280;11362;48.102;11.620;2023-04-19T05:56:43;95449.59;;;20.80;34.54
22389;BME280;11362;48.102;11.620;2023-04-19T05:59:09;95442.88;;;20.81;34.54
22389;BME280;11362;48.102;11.620;2023-04-19T06:01:34;95453.13;;;20.81;34.71
22389;BME280;11362;48.102;11.620;2023-04-19T06:03:59;95450.38;;;20.81;34.65
22389;BME280;11362;48.102;11.620;2023-04-19T06:06:25;95449.19;;;20.82;34.62
22389;BME280;11362;48.102;11.620;2023-04-19T06:08:50;95453.53;;;20.83;34.52
22389;BME280;11362;48.102;11.620;2023-04-19T06:11:15;95438.94;;;20.79;34.64
22389;BME280;11362;48.102;11.620;2023-04-19T06:13:41;95450.38;;;20.77;34.60
22389;BME280;11362;48.102;11.620;2023-04-19T06:16:06;95453.94;;;20.78;34.76
22389;BME280;11362;48.102;11.620;2023-04-19T06:18:32;95444.06;;;20.77;34.52
22389;BME280;11362;48.102;11.620;2023-04-19T06:20:58;95451.16;;;20.78;34.77
22389;BME280;11362;48.102;11.620;2023-04-19T06:23:23;95445.66;;;20.78;34.49
22389;BME280;11362;48.102;11.620;2023-04-19T06:25:48;95453.13;;;20.77;34.81
22389;BME280;11362;48.102;11.620;2023-04-19T06:28:14;95448.41;;;20.78;34.65
22389;BME280;11362;48.102;11.620;2023-04-19T06:30:39;95453.94;;;20.78;34.78
22389;BME280;11362;48.102;11.620;2023-04-19T06:33:04;95449.22;;;20.78;34.71
22389;BME280;11362;48.102;11.620;2023-04-19T06:35:30;95442.88;;;20.78;34.68
22389;BME280;11362;48.102;11.620;2023-04-19T06:37:56;95451.56;;;20.80;34.68
22389;BME280;11362;48.102;11.620;2023-04-19T06:40:21;95443.69;;;20.78;34.66
22389;BME280;11362;48.102;11.620;2023-04-19T06:42:46;95450.78;;;20.79;34.71
22389;BME280;11362;48.102;11.620;2023-04-19T06:45:12;95450.38;;;20.77;34.79
22389;BME280;11362;48.102;11.620;2023-04-19T06:47:37;95449.59;;;20.80;34.63
22389;BME280;11362;48.102;11.620;2023-04-19T06:50:03;95439.75;;;20.83;34.58
22389;BME280;11362;48.102;11.620;2023-04-19T06:52:28;95439.31;;;20.81;34.70
22389;BME280;11362;48.102;11.620;2023-04-19T06:54:53;95435.78;;;20.80;34.41
22389;BME280;11362;48.102;11.620;2023-04-19T06:57:18;95438.56;;;20.80;34.54
22389;BME280;11362;48.102;11.620;2023-04-19T06:59:44;95435.38;;;20.82;34.76
22389;BME280;11362;48.102;11.620;2023-04-19T07:02:09;95438.94;;;20.82;34.74
22389;BME280;11362;48.102;11.620;2023-04-19T07:04:35;95437.38;;;20.81;34.63
22389;BME280;11362;48.102;11.620;2023-04-19T07:07:00;95431.03;;;20.81;34.68
22389;BME280;11362;48.102;11.620;2023-04-19T07:09:26;95435.38;;;20.82;34.63
22389;BME280;11362;48.102;11.620;2023-04-19T07:11:51;95437.38;;;20.81;34.77
22389;BME280;11362;48.102;11.620;2023-04-19T07:14:17;95429.09;;;20.81;34.72
22389;BME280;11362;48.102;11.620;2023-04-19T07:16:42;95428.28;;;20.81;34.57
22389;BME280;11362;48.102;11.620;2023-04-19T07:19:07;95432.63;;;20.82;34.76
22389;BME280;11362;48.102;11.620;2023-04-19T07:21:32;95433.81;;;20.81;34.75
22389;BME280;11362;48.102;11.620;2023-04-19T07:23:58;95433.81;;;20.81;34.54
22389;BME280;11362;48.102;11.620;2023-04-19T07:26:23;95427.91;;;20.79;34.52
22389;BME280;11362;48.102;11.620;2023-04-19T07:28:49;95425.53;;;20.81;34.58
22389;BME280;11362;48.102;11.620;2023-04-19T07:31:16;95423.19;;;20.79;34.75
22389;BME280;11362;48.102;11.620;2023-04-19T07:33:41;95429.88;;;20.78;34.72
22389;BME280;11362;48.102;11.620;2023-04-19T07:36:07;95421.19;;;20.76;34.88
22389;BME280;11362;48.102;11.620;2023-04-19T07:38:32;95420.00;;;20.77;34.88
22389;BME280;11362;48.102;11.620;2023-04-19T07:40:58;95420.00;;;20.77;34.36
22389;BME280;11362;48.102;11.620;2023-04-19T07:43:23;95420.00;;;20.77;34.72
22389;BME280;11362;48.102;11.620;2023-04-19T07:45:48;95415.28;;;20.78;34.71
22389;BME280;11362;48.102;11.620;2023-04-19T07:48:14;95416.09;;;20.78;34.76
22389;BME280;11362;48.102;11.620;2023-04-19T07:50:39;95420.81;;;20.78;34.64
22389;BME280;11362;48.102;11.620;2023-04-19T07:53:04;95409.75;;;20.78;34.67
22389;BME280;11362;48.102;11.620;2023-04-19T07:55:30;95412.13;;;20.79;34.79
22389;BME280;11362;48.102;11.620;2023-04-19T07:57:55;95407.38;;;20.80;34.63
22389;BME280;11362;48.102;11.620;2023-04-19T08:00:20;95407.38;;;20.80;34.77
22389;BME280;11362;48.102;11.620;2023-04-19T08:02:47;95406.63;;;20.79;34.82
22389;BME280;11362;48.102;11.620;2023-04-19T08:05:14;95400.69;;;20.81;34.52
22389;BME280;11362;48.102;11.620;2023-04-19T08:07:40;95407.00;;;20.81;34.73
22389;BME280;11362;48.102;11.620;2023-04-19T08:10:06;95399.50;;;20.82;34.77
22389;BME280;11362;48.102;11.620;2023-04-19T08:12:32;95405.81;;;20.82;34.65
22389;BME280;11362;48.102;11.620;2023-04-19T08:14:57;95407.78;;;20.82;34.72
22389;BME280;11362;48.102;11.620;2023-04-19T08:17:22;95399.09;;;20.80;34.75
22389;BME280;11362;48.102;11.620;2023-04-19T08:19:49;95406.19;;;20.81;34.92
22389;BME280;11362;48.102;11.620;2023-04-19T08:22:15;95402.25;;;20.82;34.58
22389;BME280;11362;48.102;11.620;2023-04-19T08:24:40;95403.84;;;20.83;34.80
22389;BME280;11362;48.102;11.620;2023-04-19T08:27:05;95397.53;;;20.82;34.77
22389;BME280;11362;48.102;11.620;2023-04-19T08:29:30;95397.91;;;20.81;34.74
22389;BME280;11362;48.102;11.620;2023-04-19T08:31:56;95393.19;;;20.81;34.66
22389;BME280;11362;48.102;11.620;2023-04-19T08:34:21;95392.00;;;20.82;34.67
22389;BME280;11362;48.102;11.620;2023-04-19T08:36:46;95385.69;;;20.82;34.55
22389;BME280;11362;48.102;11.620;2023-04-19T08:39:11;95389.25;;;20.82;34.71
22389;BME280;11362;48.102;11.620;2023-04-19T08:41:37;95390.81;;;20.83;34.72
22389;BME280;11362;48.102;11.620;2023-04-19T08:44:04;95393.19;;;20.85;34.71
22389;BME280;11362;48.102;11.620;2023-04-19T08:46:30;95390.81;;;20.83;34.65
22389;BME280;11362;48.102;11.620;2023-04-19T08:48:56;95384.53;;;20.83;34.67
22389;BME280;11362;48.102;11.620;2023-04-19T08:51:23;95383.34;;;20.84;34.62
22389;BME280;11362;48.102;11.620;2023-04-19T08:53:50;95380.97;;;20.82;34.76
22389;BME280;11362;48.102;11.620;2023-04-19T08:56:16;95385.28;;;20.83;34.79
22389;BME280;11362;48.102;11.620;2023-04-19T08:58:42;95380.56;;;20.84;35.08
22389;BME280;11362;48.102;11.620;2023-04-19T09:01:07;95374.25;;;20.83;34.70
22389;BME280;11362;48.102;11.620;2023-04-19T09:03:33;95372.69;;;20.86;34.90
22389;BME280;11362;48.102;11.620;2023-04-19T09:06:00;95371.09;;;20.85;34.73
22389;BME280;11362;48.102;11.620;2023-04-19T09:08:27;95370.31;;;20.84;34.72
22389;BME280;11362;48.102;11.620;2023-04-19T09:10:58;95363.59;;;20.82;34.77
22389;BME280;11362;48.102;11.620;2023-04-19T09:13:24;95367.16;;;20.82;34.83
22389;BME280;11362;48.102;11.620;2023-04-19T09:15:50;95366.34;;;20.82;34.68
22389;BME280;11362;48.102;11.620;2023-04-19T09:18:15;95363.59;;;20.82;34.79
22389;BME280;11362;48.102;11.620;2023-04-19T09:20:43;95360.84;;;20.82;34.80
22389;BME280;11362;48.102;11.620;2023-04-19T09:23:10;95358.88;;;20.82;34.78
22389;BME280;11362;48.102;11.620;2023-04-19T09:25:36;95356.91;;;20.83;34.91
22389;BME280;11362;48.102;11.620;2023-04-19T09:28:11;95349.41;;;20.83;34.72
22389;BME280;11362;48.102;11.620;2023-04-19T09:30:38;95351.38;;;20.86;34.89
22389;BME280;11362;48.102;11.620;2023-04-19T09:33:03;95354.97;;;20.87;34.77
22389;BME280;11362;48.102;11.620;2023-04-19T09:35:58;95350.59;;;20.86;34.68
22389;BME280;11362;48.102;11.620;2023-04-19T09:38:24;95351.00;;;20.88;34.93
22389;BME280;11362;48.102;11.620;2023-04-19T09:40:49;95339.97;;;20.88;34.83
22389;BME280;11362;48.102;11.620;2023-04-19T09:43:22;95334.44;;;20.88;34.70
22389;BME280;11362;48.102;11.620;2023-04-19T09:45:48;95326.16;;;20.88;34.70
22389;BME280;11362;48.102;11.620;2023-04-19T09:48:13;95334.84;;;20.90;34.61
22389;BME280;11362;48.102;11.620;2023-04-19T09:53:21;95319.06;;;20.90;34.82
22389;BME280;11362;48.102;11.620;2023-04-19T09:55:47;95317.47;;;20.93;34.54
22389;BME280;11362;48.102;11.620;2023-04-19T09:58:13;95311.94;;;20.93;34.56
22389;BME280;11362;48.102;11.620;2023-04-19T10:00:40;95311.94;;;20.93;34.77
22389;BME280;11362;48.102;11.620;2023-04-19T10:03:08;95306.44;;;20.93;34.82
22389;BME280;11362;48.102;11.620;2023-04-19T10:05:36;95308.00;;;20.94;34.75
22389;BME280;11362;48.102;11.620;2023-04-19T10:08:03;95305.63;;;20.92;34.72
22389;BME280;11362;48.102;11.620;2023-04-19T10:10:28;95296.56;;;20.92;34.64
22389;BME280;11362;48.102;11.620;2023-04-19T10:12:56;95293.03;;;20.91;34.64
22389;BME280;11362;48.102;11.620;2023-04-19T10:15:24;95290.69;;;20.90;34.89
22389;BME280;11362;48.102;11.620;2023-04-19T10:17:49;95297.75;;;20.91;34.64
22389;BME280;11362;48.102;11.620;2023-04-19T10:20:22;95292.25;;;20.91;34.73
22389;BME280;11362;48.102;11.620;2023-04-19T10:22:51;95289.06;;;20.92;34.65
22389;BME280;11362;48.102;11.620;2023-04-19T10:25:17;95285.16;;;20.90;34.78
22389;BME280;11362;48.102;11.620;2023-04-19T10:27:43;95286.72;;;20.91;34.81
22389;BME280;11362;48.102;11.620;2023-04-19T10:30:16;95272.13;;;20.87;34.76
22389;BME280;11362;48.102;11.620;2023-04-19T10:32:44;95278.44;;;20.87;34.76
22389;BME280;11362;48.102;11.620;2023-04-19T10:35:19;95283.97;;;20.87;34.92
22389;BME280;11362;48.102;11.620;2023-04-19T10:38:13;95275.69;;;20.87;34.67
22389;BME280;11362;48.102;11.620;2023-04-19T10:43:17;95273.31;;;20.89;34.83
22389;BME280;11362;48.102;11.620;2023-04-19T10:45:43;95259.91;;;20.88;34.76
22389;BME280;11362;48.102;11.620;2023-04-19T10:48:36;95259.13;;;20.87;34.69
22389;BME280;11362;48.102;11.620;2023-04-19T10:51:25;95260.69;;;20.88;34.87
22389;BME280;11362;48.102;11.620;2023-04-19T10:53:53;95257.53;;;20.86;34.65
22389;BME280;11362;48.102;11.620;2023-04-19T11:01:40;95245.69;;;20.86;34.92
22389;BME280;11362;48.102;11.620;2023-04-19T11:06:37;95249.63;;;20.85;34.97
22389;BME280;11362;48.102;11.620;2023-04-19T11:09:10;95241.34;;;20.85;34.90
22389;BME280;11362;48.102;11.620;2023-04-19T11:11:35;95243.31;;;20.84;34.75
22389;BME280;11362;48.102;11.620;2023-04-19T11:14:02;95230.31;;;20.85;34.87
22389;BME280;11362;48.102;11.620;2023-04-19T11:16:27;95240.16;;;20.86;34.83
22389;BME280;11362;48.102;11.620;2023-04-19T11:18:53;95231.06;;;20.85;34.69
22389;BME280;11362;48.102;11.620;2023-04-19T11:21:19;95228.31;;;20.85;34.84
22389;BME280;11362;48.102;11.620;2023-04-19T11:23:44;95224.78;;;20.85;34.88
22389;BME280;11362;48.102;11.620;2023-04-19T11:26:09;95220.47;;;20.84;34.75
22389;BME280;11362;48.102;11.620;2023-04-19T11:28:35;95223.59;;;20.86;34.75
22389;BME280;11362;48.102;11.620;2023-04-19T11:31:00;95226.34;;;20.86;34.83
22389;BME280;11362;48.102;11.620;2023-04-19T11:33:25;95219.25;;;20.85;34.90
22389;BME280;11362;48.102;11.620;2023-04-19T11:35:50;95219.25;;;20.85;34.88
22389;BME280;11362;48.102;11.620;2023-04-19T11:38:16;95217.28;;;20.85;34.76
22389;BME280;11362;48.102;11.620;2023-04-19T11:40:41;95212.56;;;20.86;34.85
22389;BME280;11362;48.102;11.620;2023-04-19T11:43:06;95217.28;;;20.85;34.84
22389;BME280;11362;48.102;11.620;2023-04-19T11:45:33;95216.50;;;20.85;34.93
22389;BME280;11362;48.102;11.620;2023-04-19T11:47:59;95209.41;;;20.84;34.97
22389;BME280;11362;48.102;11.620;2023-04-19T11:50:40;95217.28;;;20.85;35.03
22389;BME280;11362;48.102;11.620;2023-04-19T11:53:17;95218.88;;;20.83;34.95
22389;BME280;11362;48.102;11.620;2023-04-19T11:55:44;95212.19;;;20.84;34.83
22389;BME280;11362;48.102;11.620;2023-04-19T12:00:47;95221.22;;;20.84;34.75
22389;BME280;11362;48.102;11.620;2023-04-19T12:03:12;95214.13;;;20.83;34.97
22389;BME280;11362;48.102;11.620;2023-04-19T12:05:37;95212.94;;;20.84;34.93
22389;BME280;11362;48.102;11.620;2023-04-19T12:08:04;95209.41;;;20.84;34.95
22389;BME280;11362;48.102;11.620;2023-04-19T12:10:32;95212.19;;;20.84;34.76
22389;BME280;11362;48.102;11.620;2023-04-19T12:12:58;95211.75;;;20.85;34.75
22389;BME280;11362;48.102;11.620;2023-04-19T12:15:39;95212.94;;;20.84;34.92
22389;BME280;11362;48.102;11.620;2023-04-19T12:18:05;95208.22;;;20.85;34.84
22389;BME280;11362;48.102;11.620;2023-04-19T12:20:36;95204.66;;;20.84;34.90
22389;BME280;11362;48.102;11.620;2023-04-19T12:23:02;95210.97;;;20.85;35.01
22389;BME280;11362;48.102;11.620;2023-04-19T12:25:31;95204.66;;;20.84;34.88
22389;BME280;11362;48.102;11.620;2023-04-19T12:28:02;95210.97;;;20.85;34.96
22389;BME280;11362;48.102;11.620;2023-04-19T12:30:28;95201.91;;;20.84;34.99
22389;BME280;11362;48.102;11.620;2023-04-19T12:32:53;95206.22;;;20.85;35.05
22389;BME280;11362;48.102;11.620;2023-04-19T12:35:20;95200.72;;;20.85;34.74
22389;BME280;11362;48.102;11.620;2023-04-19T12:37:45;95201.50;;;20.86;34.88
22389;BME280;11362;48.102;11.620;2023-04-19T12:40:11;95197.19;;;20.85;34.90
22389;BME280;11362;48.102;11.620;2023-04-19T12:42:36;95190.47;;;20.86;35.11
22389;BME280;11362;48.102;11.620;2023-04-19T12:45:02;95191.66;;;20.85;34.87
22389;BME280;11362;48.102;11.620;2023-04-19T12:47:27;95184.56;;;20.84;34.92
22389;BME280;11362;48.102;11.620;2023-04-19T12:49:52;95204.66;;;20.84;35.08
22389;BME280;11362;48.102;11.620;2023-04-19T12:52:18;95194.41;;;20.85;35.03
22389;BME280;11362;48.102;11.620;2023-04-19T12:54:43;95194.41;;;20.85;35.02
22389;BME280;11362;48.102;11.620;2023-04-19T12:57:08;95198.75;;;20.86;34.97
22389;BME280;11362;48.102;11.620;2023-04-19T12:59:34;95202.72;;;20.85;34.92